sensor_id;sensor_type;location;lat;lon;timestamp;P1;durP1;ratioP1;P2;durP2;ratioP2
80694;SDS011;70059;42.702;23.312;2023-05-10T00:02:16;8.57;;;5.45;;
80694;SDS011;70059;42.702;23.312;2023-05-10T00:04:42;8.80;;;5.63;;
80694;SDS011;70059;42.702;23.312;2023-05-10T00:07:11;10.57;;;6.47;;
80694;SDS011;70059;42.702;23.312;2023-05-10T00:09:45;11.02;;;7.65;;
80694;SDS011;70059;42.702;23.312;2023-05-10T00:12:11;9.80;;;6.78;;
80694;SDS011;70059;42.702;23.312;2023-05-10T00:14:37;8.70;;;6.57;;
80694;SDS011;70059;42.702;23.312;2023-05-10T00:17:02;9.40;;;7.68;;
80694;SDS011;70059;42.702;23.312;2023-05-10T00:19:28;10.48;;;7.60;;
80694;SDS011;70059;42.702;23.312;2023-05-10T00:21:54;11.30;;;8.50;;
80694;SDS011;70059;42.702;23.312;2023-05-10T00:24:19;14.05;;;8.70;;
80694;SDS011;70059;42.702;23.312;2023-05-10T00:26:45;11.38;;;8.88;;
80694;SDS011;70059;42.702;23.312;2023-05-10T00:29:11;11.98;;;8.90;;
80694;SDS011;70059;42.702;23.312;2023-05-10T00:31:36;11.35;;;8.77;;
80694;SDS011;70059;42.702;23.312;2023-05-10T00:34:02;11.60;;;8.85;;
80694;SDS011;70059;42.702;23.312;2023-05-10T00:36:27;12.55;;;9.30;;
80694;SDS011;70059;42.702;23.312;2023-05-10T00:38:53;15.18;;;8.77;;
80694;SDS011;70059;42.702;23.312;2023-05-10T00:41:19;13.70;;;9.88;;
80694;SDS011;70059;42.702;23.312;2023-05-10T00:43:46;15.07;;;9.80;;
80694;SDS011;70059;42.702;23.312;2023-05-10T00:46:11;11.93;;;8.85;;
80694;SDS011;70059;42.702;23.312;2023-05-10T00:48:39;12.73;;;9.52;;
80694;SDS011;70059;42.702;23.312;2023-05-10T00:51:05;15.68;;;9.43;;
80694;SDS011;70059;42.702;23.312;2023-05-10T00:53:31;12.73;;;9.13;;
80694;SDS011;70059;42.702;23.312;2023-05-10T00:55:58;13.23;;;9.05;;
80694;SDS011;70059;42.702;23.312;2023-05-10T00:58:24;14.63;;;9.40;;
80694;SDS011;70059;42.702;23.312;2023-05-10T01:00:59;13.13;;;9.80;;
80694;SDS011;70059;42.702;23.312;2023-05-10T01:03:26;13.43;;;9.43;;
80694;SDS011;70059;42.702;23.312;2023-05-10T01:05:52;13.70;;;9.32;;
80694;SDS011;70059;42.702;23.312;2023-05-10T01:08:18;14.10;;;9.38;;
80694;SDS011;70059;42.702;23.312;2023-05-10T01:10:44;12.90;;;9.90;;
80694;SDS011;70059;42.702;23.312;2023-05-10T01:13:10;13.88;;;10.10;;
80694;SDS011;70059;42.702;23.312;2023-05-10T01:15:37;12.55;;;9.68;;
80694;SDS011;70059;42.702;23.312;2023-05-10T01:18:03;14.32;;;10.23;;
80694;SDS011;70059;42.702;23.312;2023-05-10T01:20:32;14.05;;;10.63;;
80694;SDS011;70059;42.702;23.312;2023-05-10T01:23:11;14.35;;;9.85;;
80694;SDS011;70059;42.702;23.312;2023-05-10T01:36:08;11.73;;;8.43;;
80694;SDS011;70059;42.702;23.312;2023-05-10T01:38:38;11.38;;;7.97;;
80694;SDS011;70059;42.702;23.312;2023-05-10T01:41:28;10.20;;;8.25;;
80694;SDS011;70059;42.702;23.312;2023-05-10T01:44:06;11.95;;;8.73;;
80694;SDS011;70059;42.702;23.312;2023-05-10T01:46:46;11.52;;;8.40;;
80694;SDS011;70059;42.702;23.312;2023-05-10T01:49:29;9.93;;;8.05;;
80694;SDS011;70059;42.702;23.312;2023-05-10T01:52:04;11.05;;;8.40;;
80694;SDS011;70059;42.702;23.312;2023-05-10T01:54:33;11.60;;;8.20;;
80694;SDS011;70059;42.702;23.312;2023-05-10T01:57:03;11.90;;;8.57;;
80694;SDS011;70059;42.702;23.312;2023-05-10T01:59:34;10.35;;;7.75;;
80694;SDS011;70059;42.702;23.312;2023-05-10T02:02:02;12.57;;;9.00;;
80694;SDS011;70059;42.702;23.312;2023-05-10T02:04:29;10.57;;;7.85;;
80694;SDS011;70059;42.702;23.312;2023-05-10T02:06:56;11.15;;;8.30;;
80694;SDS011;70059;42.702;23.312;2023-05-10T02:09:22;12.30;;;8.20;;
80694;SDS011;70059;42.702;23.312;2023-05-10T02:11:50;11.95;;;8.43;;
80694;SDS011;70059;42.702;23.312;2023-05-10T02:14:17;11.82;;;8.48;;
80694;SDS011;70059;42.702;23.312;2023-05-10T02:16:45;10.57;;;7.68;;
80694;SDS011;70059;42.702;23.312;2023-05-10T02:19:12;10.20;;;8.00;;
80694;SDS011;70059;42.702;23.312;2023-05-10T02:21:39;10.90;;;7.80;;
80694;SDS011;70059;42.702;23.312;2023-05-10T02:24:06;9.13;;;7.22;;
80694;SDS011;70059;42.702;23.312;2023-05-10T02:26:33;9.60;;;6.13;;
80694;SDS011;70059;42.702;23.312;2023-05-10T02:29:01;8.98;;;6.40;;
80694;SDS011;70059;42.702;23.312;2023-05-10T02:31:31;10.85;;;7.30;;
80694;SDS011;70059;42.702;23.312;2023-05-10T02:33:58;9.48;;;7.00;;
80694;SDS011;70059;42.702;23.312;2023-05-10T02:36:26;8.45;;;5.88;;
80694;SDS011;70059;42.702;23.312;2023-05-10T02:38:53;9.50;;;6.93;;
80694;SDS011;70059;42.702;23.312;2023-05-10T02:41:20;12.25;;;6.85;;
80694;SDS011;70059;42.702;23.312;2023-05-10T02:43:49;11.30;;;6.93;;
80694;SDS011;70059;42.702;23.312;2023-05-10T02:46:17;7.90;;;5.50;;
80694;SDS011;70059;42.702;23.312;2023-05-10T02:48:43;9.60;;;6.40;;
80694;SDS011;70059;42.702;23.312;2023-05-10T02:51:08;9.85;;;6.70;;
80694;SDS011;70059;42.702;23.312;2023-05-10T02:53:40;10.55;;;6.97;;
80694;SDS011;70059;42.702;23.312;2023-05-10T02:56:12;12.95;;;7.30;;
80694;SDS011;70059;42.702;23.312;2023-05-10T02:58:42;8.13;;;5.72;;
80694;SDS011;70059;42.702;23.312;2023-05-10T03:01:07;10.35;;;6.72;;
80694;SDS011;70059;42.702;23.312;2023-05-10T03:03:33;8.85;;;6.32;;
80694;SDS011;70059;42.702;23.312;2023-05-10T03:05:59;11.65;;;6.68;;
80694;SDS011;70059;42.702;23.312;2023-05-10T03:08:25;9.63;;;6.82;;
80694;SDS011;70059;42.702;23.312;2023-05-10T03:16:25;10.13;;;6.65;;
80694;SDS011;70059;42.702;23.312;2023-05-10T03:18:56;9.50;;;6.40;;
80694;SDS011;70059;42.702;23.312;2023-05-10T03:21:41;10.20;;;6.78;;
80694;SDS011;70059;42.702;23.312;2023-05-10T03:24:12;11.18;;;6.30;;
80694;SDS011;70059;42.702;23.312;2023-05-10T03:26:40;9.43;;;7.13;;
80694;SDS011;70059;42.702;23.312;2023-05-10T03:29:10;11.35;;;6.53;;
80694;SDS011;70059;42.702;23.312;2023-05-10T03:31:40;11.18;;;7.50;;
80694;SDS011;70059;42.702;23.312;2023-05-10T03:34:06;12.65;;;7.25;;
80694;SDS011;70059;42.702;23.312;2023-05-10T03:36:32;10.43;;;7.03;;
80694;SDS011;70059;42.702;23.312;2023-05-10T03:38:58;11.45;;;7.30;;
80694;SDS011;70059;42.702;23.312;2023-05-10T03:41:24;11.13;;;7.20;;
80694;SDS011;70059;42.702;23.312;2023-05-10T03:43:50;9.95;;;6.88;;
80694;SDS011;70059;42.702;23.312;2023-05-10T03:46:16;10.23;;;7.05;;
80694;SDS011;70059;42.702;23.312;2023-05-10T03:48:42;38.55;;;25.48;;
80694;SDS011;70059;42.702;23.312;2023-05-10T03:51:08;27.02;;;19.75;;
80694;SDS011;70059;42.702;23.312;2023-05-10T03:53:33;15.18;;;11.60;;
80694;SDS011;70059;42.702;23.312;2023-05-10T03:55:59;10.23;;;7.45;;
80694;SDS011;70059;42.702;23.312;2023-05-10T03:58:25;9.95;;;7.38;;
80694;SDS011;70059;42.702;23.312;2023-05-10T04:00:51;11.68;;;7.78;;
80694;SDS011;70059;42.702;23.312;2023-05-10T04:03:17;10.27;;;7.20;;
80694;SDS011;70059;42.702;23.312;2023-05-10T04:05:43;9.48;;;7.13;;
80694;SDS011;70059;42.702;23.312;2023-05-10T04:16:30;19.75;;;11.82;;
80694;SDS011;70059;42.702;23.312;2023-05-10T04:18:57;15.63;;;10.30;;
80694;SDS011;70059;42.702;23.312;2023-05-10T04:21:25;12.07;;;7.28;;
80694;SDS011;70059;42.702;23.312;2023-05-10T04:23:51;12.18;;;8.35;;
80694;SDS011;70059;42.702;23.312;2023-05-10T04:26:26;15.18;;;9.18;;
80694;SDS011;70059;42.702;23.312;2023-05-10T04:29:01;12.48;;;8.73;;
80694;SDS011;70059;42.702;23.312;2023-05-10T04:31:37;12.00;;;7.30;;
80694;SDS011;70059;42.702;23.312;2023-05-10T04:34:03;13.30;;;7.22;;
80694;SDS011;70059;42.702;23.312;2023-05-10T04:36:30;11.15;;;6.55;;
80694;SDS011;70059;42.702;23.312;2023-05-10T04:38:57;9.48;;;6.63;;
80694;SDS011;70059;42.702;23.312;2023-05-10T04:41:23;9.48;;;7.05;;
80694;SDS011;70059;42.702;23.312;2023-05-10T04:43:50;10.05;;;6.75;;
80694;SDS011;70059;42.702;23.312;2023-05-10T04:46:19;9.52;;;6.93;;
80694;SDS011;70059;42.702;23.312;2023-05-10T04:48:47;10.77;;;6.80;;
80694;SDS011;70059;42.702;23.312;2023-05-10T04:51:16;9.88;;;7.00;;
80694;SDS011;70059;42.702;23.312;2023-05-10T04:53:45;9.73;;;7.05;;
80694;SDS011;70059;42.702;23.312;2023-05-10T04:56:14;11.10;;;7.82;;
80694;SDS011;70059;42.702;23.312;2023-05-10T04:58:41;12.20;;;7.27;;
80694;SDS011;70059;42.702;23.312;2023-05-10T05:01:08;10.63;;;7.10;;
80694;SDS011;70059;42.702;23.312;2023-05-10T05:03:35;13.10;;;7.47;;
80694;SDS011;70059;42.702;23.312;2023-05-10T05:06:03;12.63;;;7.60;;
80694;SDS011;70059;42.702;23.312;2023-05-10T05:08:32;10.93;;;7.78;;
80694;SDS011;70059;42.702;23.312;2023-05-10T05:11:14;13.60;;;8.07;;
80694;SDS011;70059;42.702;23.312;2023-05-10T05:13:39;14.70;;;7.35;;
80694;SDS011;70059;42.702;23.312;2023-05-10T05:16:06;11.18;;;8.48;;
80694;SDS011;70059;42.702;23.312;2023-05-10T05:21:14;12.27;;;8.25;;
80694;SDS011;70059;42.702;23.312;2023-05-10T05:32:37;13.98;;;8.48;;
80694;SDS011;70059;42.702;23.312;2023-05-10T05:35:03;11.68;;;8.77;;
80694;SDS011;70059;42.702;23.312;2023-05-10T05:52:26;13.90;;;9.23;;
80694;SDS011;70059;42.702;23.312;2023-05-10T05:54:52;12.85;;;8.93;;
80694;SDS011;70059;42.702;23.312;2023-05-10T06:18:10;13.18;;;9.00;;
80694;SDS011;70059;42.702;23.312;2023-05-10T06:23:25;12.98;;;8.85;;
80694;SDS011;70059;42.702;23.312;2023-05-10T06:25:51;14.85;;;9.35;;
80694;SDS011;70059;42.702;23.312;2023-05-10T06:31:39;14.55;;;9.50;;
80694;SDS011;70059;42.702;23.312;2023-05-10T06:34:05;13.25;;;9.23;;
80694;SDS011;70059;42.702;23.312;2023-05-10T06:36:33;12.23;;;8.88;;
80694;SDS011;70059;42.702;23.312;2023-05-10T06:38:58;12.80;;;8.40;;
80694;SDS011;70059;42.702;23.312;2023-05-10T06:41:24;12.35;;;7.78;;
80694;SDS011;70059;42.702;23.312;2023-05-10T06:56:08;13.10;;;8.55;;
80694;SDS011;70059;42.702;23.312;2023-05-10T07:16:15;14.30;;;9.05;;
80694;SDS011;70059;42.702;23.312;2023-05-10T07:24:28;12.45;;;8.00;;
80694;SDS011;70059;42.702;23.312;2023-05-10T07:38:37;14.05;;;8.27;;
80694;SDS011;70059;42.702;23.312;2023-05-10T07:41:03;11.73;;;8.23;;
80694;SDS011;70059;42.702;23.312;2023-05-10T07:46:51;14.48;;;8.52;;
80694;SDS011;70059;42.702;23.312;2023-05-10T08:01:05;15.95;;;9.25;;
80694;SDS011;70059;42.702;23.312;2023-05-10T08:09:19;10.88;;;7.75;;
80694;SDS011;70059;42.702;23.312;2023-05-10T08:11:48;12.52;;;9.00;;
80694;SDS011;70059;42.702;23.312;2023-05-10T08:14:14;14.25;;;9.40;;
80694;SDS011;70059;42.702;23.312;2023-05-10T08:16:40;15.60;;;9.45;;
80694;SDS011;70059;42.702;23.312;2023-05-10T08:22:28;12.25;;;8.15;;
80694;SDS011;70059;42.702;23.312;2023-05-10T08:24:54;16.25;;;9.65;;
80694;SDS011;70059;42.702;23.312;2023-05-10T08:27:19;14.07;;;8.50;;
80694;SDS011;70059;42.702;23.312;2023-05-10T08:29:45;13.77;;;8.63;;
80694;SDS011;70059;42.702;23.312;2023-05-10T08:32:17;13.80;;;9.43;;
80694;SDS011;70059;42.702;23.312;2023-05-10T08:34:43;11.45;;;8.68;;
80694;SDS011;70059;42.702;23.312;2023-05-10T08:40:30;14.23;;;10.00;;
80694;SDS011;70059;42.702;23.312;2023-05-10T08:46:19;11.32;;;8.73;;
80694;SDS011;70059;42.702;23.312;2023-05-10T08:52:08;14.07;;;9.90;;
80694;SDS011;70059;42.702;23.312;2023-05-10T08:54:36;13.48;;;9.60;;
80694;SDS011;70059;42.702;23.312;2023-05-10T09:00:24;12.23;;;9.35;;
80694;SDS011;70059;42.702;23.312;2023-05-10T09:02:51;13.52;;;8.73;;
80694;SDS011;70059;42.702;23.312;2023-05-10T09:08:40;15.60;;;8.93;;
80694;SDS011;70059;42.702;23.312;2023-05-10T09:11:08;13.50;;;9.88;;
80694;SDS011;70059;42.702;23.312;2023-05-10T09:17:03;13.45;;;9.63;;
80694;SDS011;70059;42.702;23.312;2023-05-10T09:19:35;10.95;;;8.18;;
80694;SDS011;70059;42.702;23.312;2023-05-10T09:22:04;17.27;;;9.52;;
80694;SDS011;70059;42.702;23.312;2023-05-10T09:33:47;12.48;;;9.23;;
80694;SDS011;70059;42.702;23.312;2023-05-10T09:36:24;17.83;;;10.65;;
80694;SDS011;70059;42.702;23.312;2023-05-10T09:38:51;14.32;;;8.60;;
80694;SDS011;70059;42.702;23.312;2023-05-10T09:41:30;15.73;;;10.52;;
80694;SDS011;70059;42.702;23.312;2023-05-10T09:43:58;15.73;;;10.50;;
80694;SDS011;70059;42.702;23.312;2023-05-10T09:46:56;17.10;;;10.68;;
80694;SDS011;70059;42.702;23.312;2023-05-10T09:49:30;16.90;;;10.88;;
80694;SDS011;70059;42.702;23.312;2023-05-10T09:52:13;16.45;;;10.13;;
80694;SDS011;70059;42.702;23.312;2023-05-10T09:54:39;19.65;;;11.82;;
80694;SDS011;70059;42.702;23.312;2023-05-10T09:57:22;16.67;;;10.75;;
80694;SDS011;70059;42.702;23.312;2023-05-10T09:59:54;20.58;;;11.32;;
80694;SDS011;70059;42.702;23.312;2023-05-10T10:17:14;16.17;;;11.00;;
80694;SDS011;70059;42.702;23.312;2023-05-10T10:20:05;16.83;;;10.10;;
80694;SDS011;70059;42.702;23.312;2023-05-10T10:22:40;15.10;;;10.02;;
80694;SDS011;70059;42.702;23.312;2023-05-10T10:25:10;15.50;;;10.90;;
80694;SDS011;70059;42.702;23.312;2023-05-10T10:36:03;13.30;;;8.80;;
80694;SDS011;70059;42.702;23.312;2023-05-10T10:38:36;17.52;;;10.20;;
80694;SDS011;70059;42.702;23.312;2023-05-10T10:41:26;16.45;;;10.77;;
80694;SDS011;70059;42.702;23.312;2023-05-10T10:52:34;10.95;;;8.02;;
80694;SDS011;70059;42.702;23.312;2023-05-10T10:55:02;18.08;;;8.55;;
80694;SDS011;70059;42.702;23.312;2023-05-10T11:02:47;12.05;;;10.73;;
80694;SDS011;70059;42.702;23.312;2023-05-10T11:07:55;12.57;;;9.73;;
80694;SDS011;70059;42.702;23.312;2023-05-10T11:10:38;11.70;;;10.50;;
80694;SDS011;70059;42.702;23.312;2023-05-10T11:13:06;12.35;;;11.10;;
80694;SDS011;70059;42.702;23.312;2023-05-10T11:15:48;13.02;;;11.73;;
80694;SDS011;70059;42.702;23.312;2023-05-10T11:18:35;13.90;;;10.80;;
80694;SDS011;70059;42.702;23.312;2023-05-10T11:21:02;13.18;;;11.07;;
80694;SDS011;70059;42.702;23.312;2023-05-10T11:23:52;11.93;;;10.27;;
80694;SDS011;70059;42.702;23.312;2023-05-10T11:26:38;12.13;;;10.80;;
80694;SDS011;70059;42.702;23.312;2023-05-10T11:29:09;13.38;;;10.82;;
80694;SDS011;70059;42.702;23.312;2023-05-10T11:31:44;13.25;;;10.57;;
80694;SDS011;70059;42.702;23.312;2023-05-10T11:34:15;16.50;;;11.18;;
80694;SDS011;70059;42.702;23.312;2023-05-10T11:36:56;13.30;;;11.90;;
80694;SDS011;70059;42.702;23.312;2023-05-10T11:39:26;10.98;;;9.88;;
80694;SDS011;70059;42.702;23.312;2023-05-10T11:41:54;14.23;;;11.88;;
80694;SDS011;70059;42.702;23.312;2023-05-10T11:44:20;13.02;;;11.65;;
80694;SDS011;70059;42.702;23.312;2023-05-10T11:46:50;12.57;;;11.27;;
80694;SDS011;70059;42.702;23.312;2023-05-10T11:49:15;17.10;;;12.88;;
80694;SDS011;70059;42.702;23.312;2023-05-10T11:51:44;13.07;;;10.50;;
80694;SDS011;70059;42.702;23.312;2023-05-10T11:54:31;13.93;;;12.00;;
80694;SDS011;70059;42.702;23.312;2023-05-10T11:56:59;12.40;;;11.18;;
80694;SDS011;70059;42.702;23.312;2023-05-10T11:59:28;14.35;;;10.32;;
80694;SDS011;70059;42.702;23.312;2023-05-10T12:01:55;13.32;;;11.10;;
80694;SDS011;70059;42.702;23.312;2023-05-10T12:04:26;15.53;;;11.53;;
80694;SDS011;70059;42.702;23.312;2023-05-10T12:06:55;15.70;;;11.57;;
80694;SDS011;70059;42.702;23.312;2023-05-10T12:09:33;13.68;;;10.57;;
80694;SDS011;70059;42.702;23.312;2023-05-10T12:15:21;12.35;;;10.82;;
80694;SDS011;70059;42.702;23.312;2023-05-10T12:17:54;14.00;;;12.48;;
80694;SDS011;70059;42.702;23.312;2023-05-10T12:20:29;12.63;;;10.38;;
80694;SDS011;70059;42.702;23.312;2023-05-10T12:22:58;15.07;;;13.40;;
80694;SDS011;70059;42.702;23.312;2023-05-10T12:25:34;16.27;;;12.63;;
80694;SDS011;70059;42.702;23.312;2023-05-10T12:28:05;16.65;;;12.40;;
80694;SDS011;70059;42.702;23.312;2023-05-10T12:30:32;16.30;;;13.00;;
80694;SDS011;70059;42.702;23.312;2023-05-10T12:33:01;12.98;;;10.32;;
80694;SDS011;70059;42.702;23.312;2023-05-10T12:35:48;13.00;;;11.60;;
80694;SDS011;70059;42.702;23.312;2023-05-10T12:38:27;16.25;;;12.35;;
80694;SDS011;70059;42.702;23.312;2023-05-10T12:40:57;16.23;;;12.35;;
80694;SDS011;70059;42.702;23.312;2023-05-10T12:43:28;12.77;;;11.43;;
80694;SDS011;70059;42.702;23.312;2023-05-10T12:45:54;14.50;;;12.20;;
80694;SDS011;70059;42.702;23.312;2023-05-10T12:48:20;14.05;;;11.88;;
80694;SDS011;70059;42.702;23.312;2023-05-10T12:50:50;15.38;;;12.75;;
80694;SDS011;70059;42.702;23.312;2023-05-10T12:53:19;14.05;;;11.55;;
80694;SDS011;70059;42.702;23.312;2023-05-10T12:55:48;13.60;;;12.15;;
80694;SDS011;70059;42.702;23.312;2023-05-10T12:58:31;11.07;;;9.98;;
80694;SDS011;70059;42.702;23.312;2023-05-10T13:00:57;16.20;;;12.30;;
80694;SDS011;70059;42.702;23.312;2023-05-10T13:04:26;15.82;;;12.10;;
80694;SDS011;70059;42.702;23.312;2023-05-10T13:06:34;15.45;;;12.95;;
80694;SDS011;70059;42.702;23.312;2023-05-10T13:12:58;13.55;;;11.88;;
80694;SDS011;70059;42.702;23.312;2023-05-10T13:15:56;16.25;;;11.57;;
80694;SDS011;70059;42.702;23.312;2023-05-10T13:18:22;14.73;;;12.80;;
80694;SDS011;70059;42.702;23.312;2023-05-10T13:20:51;15.68;;;11.07;;
80694;SDS011;70059;42.702;23.312;2023-05-10T13:23:17;15.52;;;12.45;;
80694;SDS011;70059;42.702;23.312;2023-05-10T13:25:43;17.88;;;14.15;;
80694;SDS011;70059;42.702;23.312;2023-05-10T13:28:08;13.82;;;12.32;;
80694;SDS011;70059;42.702;23.312;2023-05-10T13:30:41;14.82;;;11.57;;
80694;SDS011;70059;42.702;23.312;2023-05-10T13:33:07;16.23;;;11.52;;
80694;SDS011;70059;42.702;23.312;2023-05-10T13:35:49;12.98;;;11.52;;
80694;SDS011;70059;42.702;23.312;2023-05-10T13:38:20;15.77;;;11.38;;
80694;SDS011;70059;42.702;23.312;2023-05-10T13:40:46;13.57;;;9.40;;
80694;SDS011;70059;42.702;23.312;2023-05-10T13:43:12;14.30;;;10.93;;
80694;SDS011;70059;42.702;23.312;2023-05-10T13:45:40;14.75;;;10.57;;
80694;SDS011;70059;42.702;23.312;2023-05-10T13:48:06;12.98;;;11.63;;
80694;SDS011;70059;42.702;23.312;2023-05-10T13:50:32;14.32;;;11.85;;
80694;SDS011;70059;42.702;23.312;2023-05-10T13:53:10;11.88;;;10.70;;
80694;SDS011;70059;42.702;23.312;2023-05-10T13:58:59;12.88;;;11.57;;
80694;SDS011;70059;42.702;23.312;2023-05-10T14:01:25;10.52;;;9.45;;
80694;SDS011;70059;42.702;23.312;2023-05-10T14:04:00;14.65;;;10.27;;
80694;SDS011;70059;42.702;23.312;2023-05-10T14:06:35;16.17;;;10.30;;
80694;SDS011;70059;42.702;23.312;2023-05-10T14:09:03;13.57;;;10.85;;
80694;SDS011;70059;42.702;23.312;2023-05-10T14:11:29;13.75;;;10.90;;
80694;SDS011;70059;42.702;23.312;2023-05-10T14:14:02;11.82;;;10.35;;
80694;SDS011;70059;42.702;23.312;2023-05-10T14:19:05;13.85;;;11.80;;
80694;SDS011;70059;42.702;23.312;2023-05-10T14:21:30;14.30;;;11.93;;
80694;SDS011;70059;42.702;23.312;2023-05-10T14:24:04;12.30;;;11.00;;
80694;SDS011;70059;42.702;23.312;2023-05-10T14:26:33;12.60;;;11.00;;
80694;SDS011;70059;42.702;23.312;2023-05-10T14:31:46;12.70;;;11.40;;
80694;SDS011;70059;42.702;23.312;2023-05-10T14:34:21;18.70;;;11.00;;
80694;SDS011;70059;42.702;23.312;2023-05-10T14:36:51;17.83;;;11.80;;
80694;SDS011;70059;42.702;23.312;2023-05-10T14:39:20;20.60;;;11.13;;
80694;SDS011;70059;42.702;23.312;2023-05-10T14:41:46;13.95;;;10.98;;
80694;SDS011;70059;42.702;23.312;2023-05-10T14:44:12;15.20;;;12.43;;
80694;SDS011;70059;42.702;23.312;2023-05-10T14:46:41;15.93;;;12.27;;
80694;SDS011;70059;42.702;23.312;2023-05-10T14:49:07;14.05;;;11.85;;
80694;SDS011;70059;42.702;23.312;2023-05-10T14:51:42;12.85;;;10.90;;
80694;SDS011;70059;42.702;23.312;2023-05-10T14:54:15;12.07;;;10.77;;
80694;SDS011;70059;42.702;23.312;2023-05-10T14:56:41;13.85;;;11.65;;
80694;SDS011;70059;42.702;23.312;2023-05-10T14:59:07;15.32;;;12.68;;
80694;SDS011;70059;42.702;23.312;2023-05-10T15:01:33;16.25;;;12.93;;
80694;SDS011;70059;42.702;23.312;2023-05-10T15:04:09;12.38;;;10.57;;
80694;SDS011;70059;42.702;23.312;2023-05-10T15:09:45;13.98;;;11.32;;
80694;SDS011;70059;42.702;23.312;2023-05-10T15:14:42;13.80;;;12.15;;
80694;SDS011;70059;42.702;23.312;2023-05-10T15:17:08;13.77;;;12.38;;
80694;SDS011;70059;42.702;23.312;2023-05-10T15:22:55;12.60;;;11.30;;
80694;SDS011;70059;42.702;23.312;2023-05-10T15:25:21;15.95;;;12.05;;
80694;SDS011;70059;42.702;23.312;2023-05-10T15:31:51;13.80;;;11.30;;
80694;SDS011;70059;42.702;23.312;2023-05-10T15:34:17;13.00;;;9.85;;
80694;SDS011;70059;42.702;23.312;2023-05-10T15:36:43;11.85;;;10.65;;
80694;SDS011;70059;42.702;23.312;2023-05-10T15:39:10;13.68;;;10.57;;
80694;SDS011;70059;42.702;23.312;2023-05-10T15:41:36;14.25;;;11.40;;
80694;SDS011;70059;42.702;23.312;2023-05-10T15:44:01;11.55;;;10.35;;
80694;SDS011;70059;42.702;23.312;2023-05-10T15:46:27;16.23;;;11.57;;
80694;SDS011;70059;42.702;23.312;2023-05-10T15:48:54;12.68;;;10.32;;
80694;SDS011;70059;42.702;23.312;2023-05-10T15:51:20;11.95;;;10.23;;
80694;SDS011;70059;42.702;23.312;2023-05-10T15:53:47;12.90;;;11.07;;
80694;SDS011;70059;42.702;23.312;2023-05-10T15:56:13;15.35;;;11.77;;
80694;SDS011;70059;42.702;23.312;2023-05-10T15:58:39;12.70;;;10.75;;
80694;SDS011;70059;42.702;23.312;2023-05-10T16:01:06;12.43;;;11.07;;
80694;SDS011;70059;42.702;23.312;2023-05-10T16:03:34;12.18;;;10.88;;
80694;SDS011;70059;42.702;23.312;2023-05-10T16:06:00;12.52;;;9.88;;
80694;SDS011;70059;42.702;23.312;2023-05-10T16:08:29;15.32;;;11.13;;
80694;SDS011;70059;42.702;23.312;2023-05-10T16:10:55;12.98;;;10.75;;
80694;SDS011;70059;42.702;23.312;2023-05-10T16:13:21;15.15;;;10.40;;
80694;SDS011;70059;42.702;23.312;2023-05-10T16:15:47;13.80;;;11.40;;
80694;SDS011;70059;42.702;23.312;2023-05-10T16:18:13;14.05;;;11.13;;
80694;SDS011;70059;42.702;23.312;2023-05-10T16:20:38;14.40;;;11.60;;
80694;SDS011;70059;42.702;23.312;2023-05-10T16:23:05;17.00;;;12.27;;
80694;SDS011;70059;42.702;23.312;2023-05-10T16:25:31;13.35;;;11.00;;
80694;SDS011;70059;42.702;23.312;2023-05-10T16:27:58;15.73;;;11.82;;
80694;SDS011;70059;42.702;23.312;2023-05-10T16:30:24;12.48;;;11.00;;
80694;SDS011;70059;42.702;23.312;2023-05-10T16:32:51;15.00;;;11.82;;
80694;SDS011;70059;42.702;23.312;2023-05-10T16:35:18;13.00;;;9.98;;
80694;SDS011;70059;42.702;23.312;2023-05-10T16:37:44;15.00;;;11.63;;
80694;SDS011;70059;42.702;23.312;2023-05-10T16:40:10;14.27;;;12.23;;
80694;SDS011;70059;42.702;23.312;2023-05-10T16:42:36;14.63;;;11.27;;
80694;SDS011;70059;42.702;23.312;2023-05-10T16:45:02;15.02;;;12.45;;
80694;SDS011;70059;42.702;23.312;2023-05-10T16:47:35;15.43;;;11.63;;
80694;SDS011;70059;42.702;23.312;2023-05-10T16:50:04;15.77;;;12.10;;
80694;SDS011;70059;42.702;23.312;2023-05-10T16:52:32;12.95;;;11.63;;
80694;SDS011;70059;42.702;23.312;2023-05-10T16:54:58;16.88;;;12.27;;
80694;SDS011;70059;42.702;23.312;2023-05-10T16:57:24;11.40;;;10.15;;
80694;SDS011;70059;42.702;23.312;2023-05-10T16:59:51;15.07;;;12.35;;
80694;SDS011;70059;42.702;23.312;2023-05-10T17:02:17;13.50;;;12.10;;
80694;SDS011;70059;42.702;23.312;2023-05-10T17:04:43;14.00;;;12.20;;
80694;SDS011;70059;42.702;23.312;2023-05-10T17:07:15;17.88;;;12.80;;
80694;SDS011;70059;42.702;23.312;2023-05-10T17:09:42;13.18;;;11.73;;
80694;SDS011;70059;42.702;23.312;2023-05-10T17:12:09;14.02;;;11.50;;
80694;SDS011;70059;42.702;23.312;2023-05-10T17:14:35;14.20;;;12.30;;
80694;SDS011;70059;42.702;23.312;2023-05-10T17:17:02;13.85;;;10.77;;
80694;SDS011;70059;42.702;23.312;2023-05-10T17:19:28;14.80;;;11.45;;
80694;SDS011;70059;42.702;23.312;2023-05-10T17:21:54;17.27;;;12.45;;
80694;SDS011;70059;42.702;23.312;2023-05-10T17:24:19;13.43;;;11.90;;
80694;SDS011;70059;42.702;23.312;2023-05-10T17:26:45;13.35;;;11.02;;
80694;SDS011;70059;42.702;23.312;2023-05-10T17:29:10;16.25;;;11.90;;
80694;SDS011;70059;42.702;23.312;2023-05-10T17:31:38;15.43;;;12.40;;
80694;SDS011;70059;42.702;23.312;2023-05-10T17:34:04;15.15;;;12.70;;
80694;SDS011;70059;42.702;23.312;2023-05-10T17:36:29;13.73;;;11.60;;
80694;SDS011;70059;42.702;23.312;2023-05-10T17:38:55;12.93;;;11.65;;
80694;SDS011;70059;42.702;23.312;2023-05-10T17:41:21;13.52;;;11.27;;
80694;SDS011;70059;42.702;23.312;2023-05-10T17:43:47;13.13;;;11.07;;
80694;SDS011;70059;42.702;23.312;2023-05-10T17:46:12;15.10;;;11.60;;
80694;SDS011;70059;42.702;23.312;2023-05-10T17:48:38;10.85;;;9.75;;
80694;SDS011;70059;42.702;23.312;2023-05-10T17:51:10;13.88;;;10.75;;
80694;SDS011;70059;42.702;23.312;2023-05-10T17:53:37;14.38;;;11.07;;
80694;SDS011;70059;42.702;23.312;2023-05-10T17:56:03;14.52;;;10.82;;
80694;SDS011;70059;42.702;23.312;2023-05-10T17:58:29;14.23;;;11.23;;
80694;SDS011;70059;42.702;23.312;2023-05-10T18:00:55;12.60;;;11.30;;
80694;SDS011;70059;42.702;23.312;2023-05-10T18:03:23;12.52;;;8.98;;
80694;SDS011;70059;42.702;23.312;2023-05-10T18:05:49;13.10;;;10.77;;
80694;SDS011;70059;42.702;23.312;2023-05-10T18:08:15;13.82;;;10.75;;
80694;SDS011;70059;42.702;23.312;2023-05-10T18:10:46;12.57;;;10.02;;
80694;SDS011;70059;42.702;23.312;2023-05-10T18:13:12;19.40;;;11.88;;
80694;SDS011;70059;42.702;23.312;2023-05-10T18:15:37;12.93;;;10.70;;
80694;SDS011;70059;42.702;23.312;2023-05-10T18:18:03;14.57;;;11.68;;
80694;SDS011;70059;42.702;23.312;2023-05-10T18:20:29;15.75;;;10.95;;
80694;SDS011;70059;42.702;23.312;2023-05-10T18:22:55;13.13;;;11.02;;
80694;SDS011;70059;42.702;23.312;2023-05-10T18:25:22;13.32;;;11.60;;
80694;SDS011;70059;42.702;23.312;2023-05-10T18:27:49;12.68;;;10.68;;
80694;SDS011;70059;42.702;23.312;2023-05-10T18:30:20;18.23;;;12.00;;
80694;SDS011;70059;42.702;23.312;2023-05-10T18:32:46;13.90;;;11.48;;
80694;SDS011;70059;42.702;23.312;2023-05-10T18:35:12;15.38;;;11.07;;